sensor_id;sensor_type;location;lat;lon;timestamp;pressure;altitude;pressure_sealevel;temperature;humidity
63907;BME280;50075;49.484;11.238;2024-02-21T00:01:05;98845.97;;;8.57;100.00
63907;BME280;50075;49.484;11.238;2024-02-21T00:03:31;98841.94;;;8.27;100.00
63907;BME280;50075;49.484;11.238;2024-02-21T00:05:56;98845.41;;;8.73;100.00
63907;BME280;50075;49.484;11.238;2024-02-21T00:08:21;98849.28;;;8.50;100.00
63907;BME280;50075;49.484;11.238;2024-02-21T00:10:47;98842.16;;;8.39;100.00
63907;BME280;50075;49.484;11.238;2024-02-21T00:13:12;98834.59;;;8.50;100.00
63907;BME280;50075;49.484;11.238;2024-02-21T00:15:37;98832.50;;;8.30;100.00
63907;BME280;50075;49.484;11.238;2024-02-21T00:18:03;98835.41;;;8.47;100.00
63907;BME280;50075;49.484;11.238;2024-02-21T00:20:28;98837.13;;;8.45;100.00
63907;BME280;50075;49.484;11.238;2024-02-21T00:22:54;98832.69;;;8.40;100.00
63907;BME280;50075;49.484;11.238;2024-02-21T00:25:20;98826.97;;;8.13;100.00
63907;BME280;50075;49.484;11.238;2024-02-21T00:27:45;98823.34;;;8.05;100.00
63907;BME280;50075;49.484;11.238;2024-02-21T00:30:11;98826.97;;;8.12;100.00
63907;BME280;50075;49.484;11.238;2024-02-21T00:32:36;98820.84;;;8.53;100.00
63907;BME280;50075;49.484;11.238;2024-02-21T00:35:02;98816.56;;;8.55;100.00
63907;BME280;50075;49.484;11.238;2024-02-21T00:37:27;98814.16;;;8.19;100.00
63907;BME280;50075;49.484;11.238;2024-02-21T00:39:54;98810.31;;;8.00;100.00
63907;BME280;50075;49.484;11.238;2024-02-21T00:42:19;98807.00;;;8.06;100.00
63907;BME280;50075;49.484;11.238;2024-02-21T00:44:44;98803.22;;;7.91;100.00
63907;BME280;50075;49.484;11.238;2024-02-21T00:47:10;98806.25;;;8.12;100.00
63907;BME280;50075;49.484;11.238;2024-02-21T00:49:35;98802.41;;;7.92;100.00
63907;BME280;50075;49.484;11.238;2024-02-21T00:52:01;98802.94;;;8.20;100.00
63907;BME280;50075;49.484;11.238;2024-02-21T00:54:26;98795.78;;;8.07;100.00
63907;BME280;50075;49.484;11.238;2024-02-21T00:56:51;98791.38;;;8.03;100.00
63907;BME280;50075;49.484;11.238;2024-02-21T00:59:17;98790.81;;;8.18;100.00
63907;BME280;50075;49.484;11.238;2024-02-21T01:01:42;98788.22;;;8.18;100.00
63907;BME280;50075;49.484;11.238;2024-02-21T01:04:08;98789.69;;;8.05;100.00
63907;BME280;50075;49.484;11.238;2024-02-21T01:06:34;98786.50;;;8.18;100.00
63907;BME280;50075;49.484;11.238;2024-02-21T01:08:59;98779.66;;;8.22;100.00
63907;BME280;50075;49.484;11.238;2024-02-21T01:11:24;98786.34;;;8.11;100.00
63907;BME280;50075;49.484;11.238;2024-02-21T01:13:50;98779.56;;;8.17;100.00
63907;BME280;50075;49.484;11.238;2024-02-21T01:16:15;98778.31;;;7.97;100.00
63907;BME280;50075;49.484;11.238;2024-02-21T01:18:40;98777.47;;;7.98;100.00
63907;BME280;50075;49.484;11.238;2024-02-21T01:21:07;98769.31;;;7.79;100.00
63907;BME280;50075;49.484;11.238;2024-02-21T01:23:34;98763.84;;;8.08;100.00
63907;BME280;50075;49.484;11.238;2024-02-21T01:25:59;98768.75;;;7.92;100.00
63907;BME280;50075;49.484;11.238;2024-02-21T01:28:25;98766.06;;;7.89;100.00
63907;BME280;50075;49.484;11.238;2024-02-21T01:30:50;98761.53;;;7.79;100.00
63907;BME280;50075;49.484;11.238;2024-02-21T01:33:16;98764.13;;;7.77;100.00
63907;BME280;50075;49.484;11.238;2024-02-21T01:35:41;98759.72;;;7.73;100.00
63907;BME280;50075;49.484;11.238;2024-02-21T01:38:07;98765.28;;;7.93;100.00
63907;BME280;50075;49.484;11.238;2024-02-21T01:40:32;98753.84;;;7.82;100.00
63907;BME280;50075;49.484;11.238;2024-02-21T01:42:58;98754.31;;;7.62;100.00
63907;BME280;50075;49.484;11.238;2024-02-21T01:45:23;98747.34;;;8.03;100.00
63907;BME280;50075;49.484;11.238;2024-02-21T01:47:49;98743.84;;;8.02;100.00
63907;BME280;50075;49.484;11.238;2024-02-21T01:50:15;98741.13;;;7.94;100.00
63907;BME280;50075;49.484;11.238;2024-02-21T01:52:42;98745.94;;;8.20;100.00
63907;BME280;50075;49.484;11.238;2024-02-21T01:55:09;98737.66;;;7.92;100.00
63907;BME280;50075;49.484;11.238;2024-02-21T01:57:36;98732.38;;;7.88;100.00
63907;BME280;50075;49.484;11.238;2024-02-21T02:00:01;98733.69;;;8.13;100.00
63907;BME280;50075;49.484;11.238;2024-02-21T02:02:27;98725.06;;;8.13;100.00
63907;BME280;50075;49.484;11.238;2024-02-21T02:04:54;98718.47;;;8.30;100.00
63907;BME280;50075;49.484;11.238;2024-02-21T02:07:19;98720.34;;;7.91;100.00
63907;BME280;50075;49.484;11.238;2024-02-21T02:09:44;98724.03;;;8.03;100.00
63907;BME280;50075;49.484;11.238;2024-02-21T02:12:10;98726.78;;;8.12;100.00
63907;BME280;50075;49.484;11.238;2024-02-21T02:14:35;98721.75;;;8.21;100.00
63907;BME280;50075;49.484;11.238;2024-02-21T02:17:01;98722.31;;;8.05;100.00
63907;BME280;50075;49.484;11.238;2024-02-21T02:19:26;98715.97;;;7.89;100.00
63907;BME280;50075;49.484;11.238;2024-02-21T02:21:55;98726.34;;;7.89;100.00
63907;BME280;50075;49.484;11.238;2024-02-21T02:24:23;98718.75;;;7.98;100.00
63907;BME280;50075;49.484;11.238;2024-02-21T02:26:49;98723.78;;;7.90;100.00
63907;BME280;50075;49.484;11.238;2024-02-21T02:29:15;98715.78;;;8.26;100.00
63907;BME280;50075;49.484;11.238;2024-02-21T02:31:40;98719.97;;;8.19;100.00
63907;BME280;50075;49.484;11.238;2024-02-21T02:34:05;98711.84;;;7.99;100.00
63907;BME280;50075;49.484;11.238;2024-02-21T02:36:33;98707.53;;;7.98;100.00
63907;BME280;50075;49.484;11.238;2024-02-21T02:38:59;98708.53;;;8.06;100.00
63907;BME280;50075;49.484;11.238;2024-02-21T02:41:24;98703.56;;;8.17;100.00
63907;BME280;50075;49.484;11.238;2024-02-21T02:43:50;98693.59;;;8.40;100.00
63907;BME280;50075;49.484;11.238;2024-02-21T02:46:15;98692.63;;;8.37;100.00
63907;BME280;50075;49.484;11.238;2024-02-21T02:48:41;98691.22;;;8.05;100.00
63907;BME280;50075;49.484;11.238;2024-02-21T02:51:06;98686.06;;;8.06;100.00
63907;BME280;50075;49.484;11.238;2024-02-21T02:53:31;98673.06;;;8.02;100.00
63907;BME280;50075;49.484;11.238;2024-02-21T02:55:57;98675.91;;;8.17;100.00
63907;BME280;50075;49.484;11.238;2024-02-21T02:58:23;98676.91;;;7.78;100.00
63907;BME280;50075;49.484;11.238;2024-02-21T03:00:48;98673.38;;;7.73;100.00
63907;BME280;50075;49.484;11.238;2024-02-21T03:03:13;98667.72;;;7.94;100.00
63907;BME280;50075;49.484;11.238;2024-02-21T03:05:39;98664.66;;;7.67;100.00
63907;BME280;50075;49.484;11.238;2024-02-21T03:08:04;98659.41;;;7.64;100.00
63907;BME280;50075;49.484;11.238;2024-02-21T03:10:32;98661.69;;;7.93;100.00
63907;BME280;50075;49.484;11.238;2024-02-21T03:12:58;98659.16;;;7.97;100.00
63907;BME280;50075;49.484;11.238;2024-02-21T03:15:23;98665.06;;;7.89;100.00
63907;BME280;50075;49.484;11.238;2024-02-21T03:17:49;98656.28;;;7.81;100.00
63907;BME280;50075;49.484;11.238;2024-02-21T03:20:15;98667.31;;;8.18;100.00
63907;BME280;50075;49.484;11.238;2024-02-21T03:22:40;98667.50;;;7.81;100.00
63907;BME280;50075;49.484;11.238;2024-02-21T03:25:07;98662.31;;;7.80;100.00
63907;BME280;50075;49.484;11.238;2024-02-21T03:27:32;98664.09;;;7.84;100.00
63907;BME280;50075;49.484;11.238;2024-02-21T03:29:57;98662.31;;;7.80;100.00
63907;BME280;50075;49.484;11.238;2024-02-21T03:32:23;98660.41;;;7.71;100.00
63907;BME280;50075;49.484;11.238;2024-02-21T03:34:48;98655.34;;;7.79;100.00
63907;BME280;50075;49.484;11.238;2024-02-21T03:37:13;98645.41;;;7.54;100.00
63907;BME280;50075;49.484;11.238;2024-02-21T03:39:39;98650.94;;;7.72;100.00
63907;BME280;50075;49.484;11.238;2024-02-21T03:42:05;98650.72;;;7.61;100.00
63907;BME280;50075;49.484;11.238;2024-02-21T03:44:31;98651.41;;;7.52;100.00
63907;BME280;50075;49.484;11.238;2024-02-21T03:46:57;98645.19;;;7.43;100.00
63907;BME280;50075;49.484;11.238;2024-02-21T03:49:22;98657.00;;;7.29;100.00
63907;BME280;50075;49.484;11.238;2024-02-21T03:51:48;98645.16;;;7.40;100.00
63907;BME280;50075;49.484;11.238;2024-02-21T03:54:13;98645.34;;;7.50;100.00
63907;BME280;50075;49.484;11.238;2024-02-21T03:56:38;98641.66;;;7.38;100.00
63907;BME280;50075;49.484;11.238;2024-02-21T03:59:07;98645.97;;;7.39;100.00
63907;BME280;50075;49.484;11.238;2024-02-21T04:01:34;98640.59;;;7.75;100.00
63907;BME280;50075;49.484;11.238;2024-02-21T04:03:59;98634.03;;;7.46;100.00
63907;BME280;50075;49.484;11.238;2024-02-21T04:06:24;98635.72;;;7.44;100.00
63907;BME280;50075;49.484;11.238;2024-02-21T04:08:50;98631.53;;;7.51;100.00
63907;BME280;50075;49.484;11.238;2024-02-21T04:11:15;98628.78;;;7.41;100.00
63907;BME280;50075;49.484;11.238;2024-02-21T04:13:40;98624.38;;;7.37;100.00
63907;BME280;50075;49.484;11.238;2024-02-21T04:16:06;98623.63;;;7.43;100.00
63907;BME280;50075;49.484;11.238;2024-02-21T04:18:31;98638.78;;;7.24;100.00
63907;BME280;50075;49.484;11.238;2024-02-21T04:20:56;98616.47;;;7.29;100.00
63907;BME280;50075;49.484;11.238;2024-02-21T04:23:22;98614.88;;;7.36;100.00
63907;BME280;50075;49.484;11.238;2024-02-21T04:25:47;98617.84;;;7.13;100.00
63907;BME280;50075;49.484;11.238;2024-02-21T04:28:12;98611.91;;;7.18;100.00
63907;BME280;50075;49.484;11.238;2024-02-21T04:30:38;98615.22;;;7.10;100.00
63907;BME280;50075;49.484;11.238;2024-02-21T04:33:03;98607.28;;;7.02;100.00
63907;BME280;50075;49.484;11.238;2024-02-21T04:35:28;98612.78;;;7.18;100.00
63907;BME280;50075;49.484;11.238;2024-02-21T04:37:54;98610.28;;;7.23;100.00
63907;BME280;50075;49.484;11.238;2024-02-21T04:40:20;98603.53;;;7.31;100.00
63907;BME280;50075;49.484;11.238;2024-02-21T04:42:45;98605.28;;;7.31;100.00
63907;BME280;50075;49.484;11.238;2024-02-21T04:45:10;98604.47;;;7.33;100.00
63907;BME280;50075;49.484;11.238;2024-02-21T04:47:36;98597.38;;;7.24;100.00
63907;BME280;50075;49.484;11.238;2024-02-21T04:50:01;98606.34;;;7.42;100.00
63907;BME280;50075;49.484;11.238;2024-02-21T04:52:26;98596.38;;;7.18;100.00
63907;BME280;50075;49.484;11.238;2024-02-21T04:54:52;98590.28;;;7.14;100.00
63907;BME280;50075;49.484;11.238;2024-02-21T04:57:17;98604.03;;;7.11;100.00
63907;BME280;50075;49.484;11.238;2024-02-21T04:59:46;98601.25;;;7.02;100.00
63907;BME280;50075;49.484;11.238;2024-02-21T05:02:14;98601.97;;;6.95;100.00
63907;BME280;50075;49.484;11.238;2024-02-21T05:04:39;98598.31;;;6.85;100.00
63907;BME280;50075;49.484;11.238;2024-02-21T05:07:06;98595.94;;;6.96;100.00
63907;BME280;50075;49.484;11.238;2024-02-21T05:09:32;98589.78;;;6.89;100.00
63907;BME280;50075;49.484;11.238;2024-02-21T05:11:57;98585.47;;;6.89;100.00
63907;BME280;50075;49.484;11.238;2024-02-21T05:14:26;98583.72;;;6.87;100.00
63907;BME280;50075;49.484;11.238;2024-02-21T05:16:54;98581.09;;;6.85;100.00
63907;BME280;50075;49.484;11.238;2024-02-21T05:19:20;98568.69;;;6.70;100.00
63907;BME280;50075;49.484;11.238;2024-02-21T05:21:45;98567.69;;;6.63;100.00
63907;BME280;50075;49.484;11.238;2024-02-21T05:24:11;98568.44;;;6.58;100.00
63907;BME280;50075;49.484;11.238;2024-02-21T05:26:36;98558.75;;;6.49;100.00
63907;BME280;50075;49.484;11.238;2024-02-21T05:29:02;98563.25;;;6.58;100.00
63907;BME280;50075;49.484;11.238;2024-02-21T05:31:43;98555.38;;;6.51;100.00
63907;BME280;50075;49.484;11.238;2024-02-21T05:34:20;98558.75;;;6.49;100.00
63907;BME280;50075;49.484;11.238;2024-02-21T05:36:45;98564.69;;;6.45;100.00
63907;BME280;50075;49.484;11.238;2024-02-21T05:39:11;98563.72;;;6.40;100.00
63907;BME280;50075;49.484;11.238;2024-02-21T05:41:36;98562.63;;;6.28;100.00
63907;BME280;50075;49.484;11.238;2024-02-21T05:44:02;98565.22;;;6.30;100.00
63907;BME280;50075;49.484;11.238;2024-02-21T05:46:27;98560.88;;;6.29;100.00
63907;BME280;50075;49.484;11.238;2024-02-21T05:48:53;98559.94;;;6.25;100.00
63907;BME280;50075;49.484;11.238;2024-02-21T05:51:18;98564.16;;;6.20;100.00
63907;BME280;50075;49.484;11.238;2024-02-21T05:53:43;98561.78;;;6.29;100.00
63907;BME280;50075;49.484;11.238;2024-02-21T05:56:12;98559.84;;;6.20;100.00
63907;BME280;50075;49.484;11.238;2024-02-21T05:58:38;98553.84;;;6.21;100.00
63907;BME280;50075;49.484;11.238;2024-02-21T06:01:04;98546.75;;;6.12;100.00
63907;BME280;50075;49.484;11.238;2024-02-21T06:03:30;98544.28;;;6.19;100.00
63907;BME280;50075;49.484;11.238;2024-02-21T06:05:55;98546.81;;;6.16;100.00
63907;BME280;50075;49.484;11.238;2024-02-21T06:08:21;98535.34;;;6.04;100.00
63907;BME280;50075;49.484;11.238;2024-02-21T06:10:46;98536.94;;;5.99;100.00
63907;BME280;50075;49.484;11.238;2024-02-21T06:13:13;98532.63;;;5.99;100.00
63907;BME280;50075;49.484;11.238;2024-02-21T06:15:39;98544.69;;;5.99;100.00
63907;BME280;50075;49.484;11.238;2024-02-21T06:18:04;98551.38;;;5.91;100.00
63907;BME280;50075;49.484;11.238;2024-02-21T06:20:29;98556.31;;;5.81;100.00
63907;BME280;50075;49.484;11.238;2024-02-21T06:22:55;98557.19;;;5.83;100.00
63907;BME280;50075;49.484;11.238;2024-02-21T06:25:20;98551.19;;;5.83;100.00
63907;BME280;50075;49.484;11.238;2024-02-21T06:27:45;98552.00;;;5.82;100.00
63907;BME280;50075;49.484;11.238;2024-02-21T06:30:11;98554.31;;;5.69;100.00
63907;BME280;50075;49.484;11.238;2024-02-21T06:32:36;98556.66;;;5.62;100.00
63907;BME280;50075;49.484;11.238;2024-02-21T06:35:02;98558.34;;;5.59;100.00
63907;BME280;50075;49.484;11.238;2024-02-21T06:37:27;98562.72;;;5.62;100.00
63907;BME280;50075;49.484;11.238;2024-02-21T06:39:52;98564.41;;;5.62;100.00
63907;BME280;50075;49.484;11.238;2024-02-21T06:42:18;98576.00;;;5.78;100.00
63907;BME280;50075;49.484;11.238;2024-02-21T06:44:44;98575.38;;;5.86;100.00
63907;BME280;50075;49.484;11.238;2024-02-21T06:47:09;98575.66;;;5.99;100.00
63907;BME280;50075;49.484;11.238;2024-02-21T06:49:35;98570.84;;;6.11;100.00
63907;BME280;50075;49.484;11.238;2024-02-21T06:52:04;98575.84;;;6.05;100.00
63907;BME280;50075;49.484;11.238;2024-02-21T06:54:30;98579.91;;;6.31;100.00
63907;BME280;50075;49.484;11.238;2024-02-21T06:56:55;98577.41;;;6.35;100.00
63907;BME280;50075;49.484;11.238;2024-02-21T06:59:20;98575.41;;;6.23;100.00
63907;BME280;50075;49.484;11.238;2024-02-21T07:01:49;98578.50;;;6.45;100.00
63907;BME280;50075;49.484;11.238;2024-02-21T07:04:15;98579.22;;;6.80;100.00
63907;BME280;50075;49.484;11.238;2024-02-21T07:06:40;98583.78;;;6.92;100.00
63907;BME280;50075;49.484;11.238;2024-02-21T07:09:06;98580.38;;;6.94;100.00
63907;BME280;50075;49.484;11.238;2024-02-21T07:11:31;98567.84;;;7.13;100.00
63907;BME280;50075;49.484;11.238;2024-02-21T07:13:57;98566.16;;;7.15;100.00
63907;BME280;50075;49.484;11.238;2024-02-21T07:16:22;98557.94;;;7.38;100.00
63907;BME280;50075;49.484;11.238;2024-02-21T07:18:47;98550.97;;;7.83;100.00
63907;BME280;50075;49.484;11.238;2024-02-21T07:21:13;98548.72;;;8.05;100.00
63907;BME280;50075;49.484;11.238;2024-02-21T07:23:41;98550.50;;;8.06;100.00
63907;BME280;50075;49.484;11.238;2024-02-21T07:26:07;98548.53;;;7.91;100.00
63907;BME280;50075;49.484;11.238;2024-02-21T07:28:32;98556.16;;;7.83;100.00
63907;BME280;50075;49.484;11.238;2024-02-21T07:30:59;98554.47;;;8.42;100.00
63907;BME280;50075;49.484;11.238;2024-02-21T07:33:25;98556.16;;;8.39;100.00
63907;BME280;50075;49.484;11.238;2024-02-21T07:35:50;98568.44;;;10.06;100.00
63907;BME280;50075;49.484;11.238;2024-02-21T07:38:16;98570.84;;;13.00;100.00
63907;BME280;50075;49.484;11.238;2024-02-21T07:40:44;98570.13;;;11.95;100.00
63907;BME280;50075;49.484;11.238;2024-02-21T07:43:10;98574.22;;;10.93;100.00
63907;BME280;50075;49.484;11.238;2024-02-21T07:45:35;98564.06;;;12.43;100.00
63907;BME280;50075;49.484;11.238;2024-02-21T07:48:00;98549.28;;;12.39;100.00
63907;BME280;50075;49.484;11.238;2024-02-21T07:50:26;98529.47;;;13.80;100.00
63907;BME280;50075;49.484;11.238;2024-02-21T07:52:51;98504.63;;;17.13;100.00
63907;BME280;50075;49.484;11.238;2024-02-21T07:55:17;98501.50;;;17.36;100.00
63907;BME280;50075;49.484;11.238;2024-02-21T07:57:42;98492.53;;;17.05;100.00
63907;BME280;50075;49.484;11.238;2024-02-21T08:00:08;98480.69;;;17.27;100.00
63907;BME280;50075;49.484;11.238;2024-02-21T08:02:35;98480.03;;;17.55;100.00
63907;BME280;50075;49.484;11.238;2024-02-21T08:05:01;98486.50;;;18.79;100.00
63907;BME280;50075;49.484;11.238;2024-02-21T08:07:26;98486.22;;;16.70;100.00
63907;BME280;50075;49.484;11.238;2024-02-21T08:09:54;98483.25;;;17.30;100.00
63907;BME280;50075;49.484;11.238;2024-02-21T08:12:19;98482.00;;;16.63;100.00
63907;BME280;50075;49.484;11.238;2024-02-21T08:14:44;98469.19;;;17.31;100.00
63907;BME280;50075;49.484;11.238;2024-02-21T08:17:10;98462.94;;;16.06;99.87
63907;BME280;50075;49.484;11.238;2024-02-21T08:19:36;98471.22;;;15.24;100.00
63907;BME280;50075;49.484;11.238;2024-02-21T08:22:01;98468.06;;;13.13;100.00
63907;BME280;50075;49.484;11.238;2024-02-21T08:24:26;98463.81;;;12.95;100.00
63907;BME280;50075;49.484;11.238;2024-02-21T08:26:52;98457.63;;;13.07;100.00
63907;BME280;50075;49.484;11.238;2024-02-21T08:29:17;98451.00;;;12.45;100.00
63907;BME280;50075;49.484;11.238;2024-02-21T08:31:42;98445.03;;;11.84;100.00
63907;BME280;50075;49.484;11.238;2024-02-21T08:34:08;98439.78;;;12.01;100.00
63907;BME280;50075;49.484;11.238;2024-02-21T08:36:34;98438.94;;;11.79;100.00
63907;BME280;50075;49.484;11.238;2024-02-21T08:39:01;98446.75;;;11.68;100.00
63907;BME280;50075;49.484;11.238;2024-02-21T08:41:30;98443.28;;;11.83;100.00
63907;BME280;50075;49.484;11.238;2024-02-21T08:43:56;98452.81;;;12.12;100.00
63907;BME280;50075;49.484;11.238;2024-02-21T08:46:21;98449.34;;;11.93;100.00
63907;BME280;50075;49.484;11.238;2024-02-21T08:48:46;98451.97;;;11.97;100.00
63907;BME280;50075;49.484;11.238;2024-02-21T08:51:12;98445.81;;;12.30;100.00
63907;BME280;50075;49.484;11.238;2024-02-21T08:53:38;98450.91;;;12.69;100.00
63907;BME280;50075;49.484;11.238;2024-02-21T08:56:04;98450.13;;;12.46;100.00
63907;BME280;50075;49.484;11.238;2024-02-21T08:58:29;98441.00;;;13.22;100.00
63907;BME280;50075;49.484;11.238;2024-02-21T09:00:55;98437.63;;;13.12;100.00
63907;BME280;50075;49.484;11.238;2024-02-21T09:03:20;98431.19;;;13.60;100.00
63907;BME280;50075;49.484;11.238;2024-02-21T09:05:46;98435.91;;;13.07;100.00
63907;BME280;50075;49.484;11.238;2024-02-21T09:08:12;98427.94;;;13.25;100.00
63907;BME280;50075;49.484;11.238;2024-02-21T09:10:37;98433.59;;;13.84;100.00
63907;BME280;50075;49.484;11.238;2024-02-21T09:13:03;98432.56;;;14.77;100.00
63907;BME280;50075;49.484;11.238;2024-02-21T09:15:29;98437.94;;;16.77;100.00
63907;BME280;50075;49.484;11.238;2024-02-21T09:17:54;98430.81;;;18.30;100.00
63907;BME280;50075;49.484;11.238;2024-02-21T09:20:19;98422.56;;;19.31;100.00
63907;BME280;50075;49.484;11.238;2024-02-21T09:22:45;98414.63;;;19.85;97.94
63907;BME280;50075;49.484;11.238;2024-02-21T09:25:10;98413.00;;;19.81;100.00
63907;BME280;50075;49.484;11.238;2024-02-21T09:27:37;98408.50;;;19.58;84.75
63907;BME280;50075;49.484;11.238;2024-02-21T09:30:03;98410.91;;;18.80;92.66
63907;BME280;50075;49.484;11.238;2024-02-21T09:32:30;98407.25;;;19.95;100.00
63907;BME280;50075;49.484;11.238;2024-02-21T09:34:55;98411.91;;;20.14;100.00
63907;BME280;50075;49.484;11.238;2024-02-21T09:37:21;98400.94;;;20.73;96.85
63907;BME280;50075;49.484;11.238;2024-02-21T09:39:46;98397.94;;;20.82;100.00
63907;BME280;50075;49.484;11.238;2024-02-21T09:42:14;98408.72;;;19.51;94.08
63907;BME280;50075;49.484;11.238;2024-02-21T09:44:45;98407.88;;;18.64;100.00
63907;BME280;50075;49.484;11.238;2024-02-21T09:49:42;98398.59;;;20.41;93.08
63907;BME280;50075;49.484;11.238;2024-02-21T09:52:08;98398.69;;;19.88;66.02
63907;BME280;50075;49.484;11.238;2024-02-21T09:54:35;98390.66;;;19.92;82.15
63907;BME280;50075;49.484;11.238;2024-02-21T09:57:01;98402.63;;;16.50;72.21
63907;BME280;50075;49.484;11.238;2024-02-21T09:59:28;98398.19;;;17.33;92.47
63907;BME280;50075;49.484;11.238;2024-02-21T10:01:55;98392.81;;;14.45;93.33
63907;BME280;50075;49.484;11.238;2024-02-21T10:04:21;98387.53;;;15.13;91.96
63907;BME280;50075;49.484;11.238;2024-02-21T10:06:46;98372.16;;;16.82;77.72
63907;BME280;50075;49.484;11.238;2024-02-21T10:09:28;98383.78;;;15.82;85.91
63907;BME280;50075;49.484;11.238;2024-02-21T10:11:55;98373.25;;;15.85;83.80
63907;BME280;50075;49.484;11.238;2024-02-21T10:14:20;98365.47;;;15.79;84.17
63907;BME280;50075;49.484;11.238;2024-02-21T10:16:47;98364.72;;;14.60;97.05
63907;BME280;50075;49.484;11.238;2024-02-21T10:19:19;98355.97;;;14.61;96.41
63907;BME280;50075;49.484;11.238;2024-02-21T10:22:02;98354.22;;;15.23;93.82
63907;BME280;50075;49.484;11.238;2024-02-21T10:24:34;98349.34;;;15.52;91.42
63907;BME280;50075;49.484;11.238;2024-02-21T10:27:07;98336.72;;;14.65;91.17
63907;BME280;50075;49.484;11.238;2024-02-21T10:29:39;98341.78;;;14.81;95.08
63907;BME280;50075;49.484;11.238;2024-02-21T10:32:09;98332.09;;;16.33;100.00
63907;BME280;50075;49.484;11.238;2024-02-21T10:34:36;98339.00;;;17.16;100.00
63907;BME280;50075;49.484;11.238;2024-02-21T10:37:07;98336.88;;;16.94;91.19
63907;BME280;50075;49.484;11.238;2024-02-21T10:39:33;98320.66;;;16.37;100.00
63907;BME280;50075;49.484;11.238;2024-02-21T10:42:03;98324.19;;;16.34;90.62
63907;BME280;50075;49.484;11.238;2024-02-21T10:44:35;98325.31;;;16.62;91.08
63907;BME280;50075;49.484;11.238;2024-02-21T10:47:04;98315.19;;;16.04;79.58
63907;BME280;50075;49.484;11.238;2024-02-21T10:49:32;98315.94;;;16.51;73.67
63907;BME280;50075;49.484;11.238;2024-02-21T10:52:11;98306.63;;;16.38;77.72
63907;BME280;50075;49.484;11.238;2024-02-21T10:54:55;98303.16;;;15.92;82.81
63907;BME280;50075;49.484;11.238;2024-02-21T10:57:22;98302.84;;;16.50;79.88
63907;BME280;50075;49.484;11.238;2024-02-21T10:59:48;98297.31;;;16.62;88.48
63907;BME280;50075;49.484;11.238;2024-02-21T11:02:14;98298.03;;;16.30;81.77
63907;BME280;50075;49.484;11.238;2024-02-21T11:04:40;98291.88;;;16.31;81.91
63907;BME280;50075;49.484;11.238;2024-02-21T11:07:06;98286.16;;;16.11;86.24
63907;BME280;50075;49.484;11.238;2024-02-21T11:09:33;98289.66;;;15.19;95.53
63907;BME280;50075;49.484;11.238;2024-02-21T11:12:01;98281.59;;;14.73;88.33
63907;BME280;50075;49.484;11.238;2024-02-21T11:14:29;98273.38;;;15.50;85.33
63907;BME280;50075;49.484;11.238;2024-02-21T11:16:57;98271.97;;;15.78;90.84
63907;BME280;50075;49.484;11.238;2024-02-21T11:19:25;98276.41;;;16.18;83.72
63907;BME280;50075;49.484;11.238;2024-02-21T11:21:51;98264.72;;;15.46;81.43
63907;BME280;50075;49.484;11.238;2024-02-21T11:26:54;98250.97;;;15.79;93.85
63907;BME280;50075;49.484;11.238;2024-02-21T11:29:26;98245.69;;;15.81;88.72
63907;BME280;50075;49.484;11.238;2024-02-21T11:31:52;98237.97;;;16.16;92.05
63907;BME280;50075;49.484;11.238;2024-02-21T11:34:18;98236.81;;;15.86;81.93
63907;BME280;50075;49.484;11.238;2024-02-21T11:36:52;98233.84;;;15.14;80.90
63907;BME280;50075;49.484;11.238;2024-02-21T11:39:24;98225.66;;;16.19;99.63
63907;BME280;50075;49.484;11.238;2024-02-21T11:42:03;98221.28;;;15.75;82.30
63907;BME280;50075;49.484;11.238;2024-02-21T11:44:29;98206.75;;;16.03;84.57
63907;BME280;50075;49.484;11.238;2024-02-21T11:46:54;98208.50;;;16.44;83.15
63907;BME280;50075;49.484;11.238;2024-02-21T11:49:20;98204.72;;;16.54;92.00
63907;BME280;50075;49.484;11.238;2024-02-21T11:51:46;98193.28;;;16.93;81.53
63907;BME280;50075;49.484;11.238;2024-02-21T11:54:11;98193.94;;;16.30;92.13
63907;BME280;50075;49.484;11.238;2024-02-21T11:56:38;98189.53;;;15.47;78.11
63907;BME280;50075;49.484;11.238;2024-02-21T11:59:03;98191.84;;;15.18;90.56
63907;BME280;50075;49.484;11.238;2024-02-21T12:01:30;98176.38;;;15.04;88.01
63907;BME280;50075;49.484;11.238;2024-02-21T12:03:56;98176.28;;;14.57;96.51
63907;BME280;50075;49.484;11.238;2024-02-21T12:06:22;98172.19;;;14.95;92.40
63907;BME280;50075;49.484;11.238;2024-02-21T12:08:47;98164.94;;;14.58;89.23
63907;BME280;50075;49.484;11.238;2024-02-21T12:11:22;98156.97;;;15.16;95.92
63907;BME280;50075;49.484;11.238;2024-02-21T12:13:59;98158.44;;;14.29;83.43
63907;BME280;50075;49.484;11.238;2024-02-21T12:16:27;98142.88;;;14.71;98.86
63907;BME280;50075;49.484;11.238;2024-02-21T12:18:53;98148.28;;;14.62;85.67
63907;BME280;50075;49.484;11.238;2024-02-21T12:21:18;98143.97;;;14.58;92.59
63907;BME280;50075;49.484;11.238;2024-02-21T12:23:44;98137.06;;;14.55;87.91
63907;BME280;50075;49.484;11.238;2024-02-21T12:26:09;98139.66;;;15.06;79.99
63907;BME280;50075;49.484;11.238;2024-02-21T12:28:34;98130.56;;;14.78;81.04
63907;BME280;50075;49.484;11.238;2024-02-21T12:31:00;98132.50;;;14.67;84.93
63907;BME280;50075;49.484;11.238;2024-02-21T12:33:25;98130.53;;;14.80;80.52
63907;BME280;50075;49.484;11.238;2024-02-21T12:35:51;98123.31;;;15.39;82.20
63907;BME280;50075;49.484;11.238;2024-02-21T12:38:16;98113.25;;;15.18;84.43
63907;BME280;50075;49.484;11.238;2024-02-21T12:40:43;98116.56;;;15.27;85.69
63907;BME280;50075;49.484;11.238;2024-02-21T12:43:08;98103.16;;;14.98;94.60
63907;BME280;50075;49.484;11.238;2024-02-21T12:45:34;98093.66;;;15.36;97.25
63907;BME280;50075;49.484;11.238;2024-02-21T12:48:00;98091.38;;;14.74;81.51